createdAt,value
2017-03-17T00:00:51.041Z,0
2017-03-17T00:01:50.526Z,0
2017-03-17T00:02:51.160Z,0
2017-03-17T00:03:50.559Z,0
2017-03-17T00:04:50.899Z,0
2017-03-17T00:05:51.178Z,0
2017-03-17T00:06:50.638Z,0
2017-03-17T00:07:50.978Z,0
2017-03-17T00:08:51.324Z,0
2017-03-17T00:09:50.413Z,0
2017-03-17T00:10:51.633Z,0
2017-03-17T00:11:50.782Z,0
2017-03-17T00:12:51.423Z,0
2017-03-17T00:13:51.155Z,0
2017-03-17T00:14:51.184Z,0
2017-03-17T00:15:51.461Z,0
2017-03-17T00:16:50.913Z,0
2017-03-17T00:17:51.250Z,0
2017-03-17T00:18:51.599Z,0
2017-03-17T00:19:51.318Z,0
2017-03-17T00:20:51.285Z,0
2017-03-17T00:21:51.697Z,0
2017-03-17T00:22:51.402Z,0
2017-03-17T00:23:51.424Z,0
2017-03-17T00:24:51.455Z,0
2017-03-17T00:25:52.052Z,0
2017-03-17T00:26:50.889Z,0
2017-03-17T00:27:51.543Z,0
2017-03-17T00:28:51.263Z,0
2017-03-17T00:29:51.904Z,0
2017-03-17T00:30:52.193Z,0
2017-03-17T00:31:51.662Z,0
2017-03-17T00:32:51.999Z,0
2017-03-17T00:33:51.386Z,0
2017-03-17T00:34:52.067Z,0
2017-03-17T00:35:52.335Z,0
2017-03-17T00:36:51.481Z,0
2017-03-17T00:37:51.822Z,0
2017-03-17T00:38:52.171Z,0
2017-03-17T00:39:51.872Z,0
2017-03-17T00:40:51.836Z,0
2017-03-17T00:41:51.625Z,0
2017-03-17T00:42:51.651Z,0
2017-03-17T00:43:51.988Z,0
2017-03-17T00:44:51.393Z,0
2017-03-17T00:45:52.027Z,0
2017-03-17T00:46:51.765Z,0
2017-03-17T00:47:51.162Z,0
2017-03-17T00:48:52.125Z,0
2017-03-17T00:49:52.459Z,0
2017-03-17T00:50:52.127Z,0
2017-03-17T00:51:51.901Z,0
2017-03-17T00:52:52.558Z,0
2017-03-17T00:53:52.271Z,0
2017-03-17T00:54:52.327Z,0
2017-03-17T00:55:52.265Z,0
2017-03-17T00:56:52.675Z,0
2017-03-17T00:57:52.700Z,0
2017-03-17T00:58:52.098Z,0
2017-03-17T00:59:52.753Z,0
2017-03-17T01:00:52.714Z,0
2017-03-17T01:01:52.505Z,0
2017-03-17T01:02:51.905Z,0
2017-03-17T01:03:52.242Z,0
2017-03-17T01:04:52.272Z,0
2017-03-17T01:05:52.291Z,0
2017-03-17T01:06:52.261Z,0
2017-03-17T01:07:52.349Z,0
2017-03-17T01:08:53.002Z,0
2017-03-17T01:09:52.715Z,0
2017-03-17T01:10:53.061Z,0
2017-03-17T01:11:53.340Z,0
2017-03-17T01:12:53.122Z,0
2017-03-17T01:13:52.830Z,0
2017-03-17T01:14:52.543Z,0
2017-03-17T01:15:52.575Z,0
2017-03-17T01:16:53.473Z,0
2017-03-17T01:17:52.938Z,0
2017-03-17T01:18:53.286Z,0
2017-03-17T01:19:52.687Z,0
2017-03-17T01:20:53.336Z,0
2017-03-17T01:21:53.308Z,0
2017-03-17T01:22:52.761Z,0
2017-03-17T01:23:52.797Z,0
2017-03-17T01:24:52.512Z,0
2017-03-17T01:25:52.231Z,0
2017-03-17T01:26:53.746Z,0
2017-03-17T01:27:52.285Z,0
2017-03-17T01:28:53.250Z,0
2017-03-17T01:29:53.587Z,0
2017-03-17T01:30:53.603Z,0
2017-03-17T01:31:53.580Z,0
2017-03-17T01:32:53.365Z,0
2017-03-17T01:33:53.390Z,0
2017-03-17T01:34:52.786Z,0
2017-03-17T01:35:52.815Z,0
2017-03-17T01:36:53.719Z,0
2017-03-17T01:37:53.180Z,0
2017-03-17T01:38:53.522Z,0
2017-03-17T01:39:53.586Z,0
2017-03-17T01:40:53.579Z,0
2017-03-17T01:41:53.231Z,0
2017-03-17T01:42:53.313Z,0
2017-03-17T01:43:53.054Z,0
2017-03-17T01:44:53.387Z,0
2017-03-17T01:45:53.758Z,0
2017-03-17T01:46:53.377Z,0
2017-03-17T01:47:53.777Z,0
2017-03-17T01:48:54.105Z,0
2017-03-17T01:49:53.826Z,0
2017-03-17T01:50:53.858Z,0
2017-03-17T01:51:53.207Z,0
2017-03-17T01:52:53.288Z,0
2017-03-17T01:53:53.634Z,0
2017-03-17T01:54:53.961Z,0
2017-03-17T01:55:53.366Z,0
2017-03-17T01:56:54.587Z,0
2017-03-17T01:57:53.122Z,0
2017-03-17T01:58:53.481Z,0
2017-03-17T01:59:54.422Z,0
2017-03-17T02:00:53.818Z,0
2017-03-17T02:01:53.481Z,0
2017-03-17T02:02:54.180Z,0
2017-03-17T02:03:53.905Z,0
2017-03-17T02:04:54.242Z,0
2017-03-17T02:05:54.287Z,0
2017-03-17T02:06:54.551Z,0
2017-03-17T02:07:54.331Z,0
2017-03-17T02:08:54.669Z,0
2017-03-17T02:09:54.697Z,0
2017-03-17T02:10:54.418Z,0
2017-03-17T02:11:55.007Z,0
2017-03-17T02:12:54.788Z,0
2017-03-17T02:13:54.816Z,0
2017-03-17T02:14:54.829Z,0
2017-03-17T02:15:54.550Z,0
2017-03-17T02:16:54.830Z,0
2017-03-17T02:17:54.295Z,0
2017-03-17T02:18:54.656Z,0
2017-03-17T02:19:54.037Z,0
2017-03-17T02:20:54.370Z,0
2017-03-17T02:21:54.091Z,0
2017-03-17T02:22:54.991Z,0
2017-03-17T02:23:54.777Z,0
2017-03-17T02:24:54.801Z,0
2017-03-17T02:25:54.830Z,0
2017-03-17T02:26:55.159Z,0
2017-03-17T02:27:55.448Z,0
2017-03-17T02:28:55.224Z,0
2017-03-17T02:29:54.624Z,0
2017-03-17T02:30:54.649Z,0
2017-03-17T02:31:54.670Z,0
2017-03-17T02:32:55.269Z,0
2017-03-17T02:33:54.417Z,0
2017-03-17T02:34:55.081Z,0
2017-03-17T02:35:55.102Z,0
2017-03-17T02:36:54.834Z,0
2017-03-17T02:37:55.096Z,0
2017-03-17T02:38:54.872Z,0
2017-03-17T02:39:54.626Z,0
2017-03-17T02:40:55.242Z,0
2017-03-17T02:41:54.643Z,0
2017-03-17T02:42:55.567Z,0
2017-03-17T02:43:55.019Z,0
2017-03-17T02:44:55.669Z,0
2017-03-17T02:45:55.377Z,0
2017-03-17T02:46:55.089Z,0
2017-03-17T02:47:55.686Z,0
2017-03-17T02:48:55.157Z,0
2017-03-17T02:49:55.180Z,0
2017-03-17T02:50:54.881Z,0
2017-03-17T02:51:55.226Z,0
2017-03-17T02:52:55.831Z,0
2017-03-17T02:53:55.297Z,0
2017-03-17T02:54:55.317Z,0
2017-03-17T02:55:55.341Z,0
2017-03-17T02:56:55.058Z,0
2017-03-17T02:57:55.654Z,0
2017-03-17T02:58:55.431Z,0
2017-03-17T02:59:55.769Z,0
2017-03-17T03:00:56.105Z,0
2017-03-17T03:01:56.134Z,0
2017-03-17T03:02:56.405Z,0
2017-03-17T03:03:55.578Z,0
2017-03-17T03:04:55.888Z,0
2017-03-17T03:05:55.624Z,0
2017-03-17T03:06:56.265Z,0
2017-03-17T03:07:55.926Z,0
2017-03-17T03:08:55.703Z,0
2017-03-17T03:09:56.048Z,0
2017-03-17T03:10:55.448Z,0
2017-03-17T03:11:55.784Z,0
2017-03-17T03:12:56.373Z,0
2017-03-17T03:13:55.539Z,0
2017-03-17T03:14:56.492Z,0
2017-03-17T03:15:55.892Z,0
2017-03-17T03:16:56.233Z,0
2017-03-17T03:17:56.823Z,0
2017-03-17T03:18:56.643Z,0
2017-03-17T03:19:56.620Z,0
2017-03-17T03:20:56.652Z,0
2017-03-17T03:21:56.677Z,0
2017-03-17T03:22:56.658Z,0
2017-03-17T03:23:56.119Z,0
2017-03-17T03:24:56.491Z,0
2017-03-17T03:25:56.791Z,0
2017-03-17T03:26:56.196Z,0
2017-03-17T03:27:56.786Z,0
2017-03-17T03:28:56.578Z,0
2017-03-17T03:29:56.912Z,0
2017-03-17T03:30:56.307Z,0
2017-03-17T03:31:56.961Z,0
2017-03-17T03:32:56.622Z,0
2017-03-17T03:33:56.710Z,0
2017-03-17T03:34:56.727Z,0
2017-03-17T03:35:57.072Z,0
2017-03-17T03:36:56.785Z,0
2017-03-17T03:37:57.378Z,0
2017-03-17T03:38:57.149Z,0
2017-03-17T03:39:56.556Z,0
2017-03-17T03:40:56.891Z,0
2017-03-17T03:41:56.292Z,0
2017-03-17T03:42:57.509Z,0
2017-03-17T03:43:57.286Z,0
2017-03-17T03:44:56.691Z,0
2017-03-17T03:45:57.351Z,0
2017-03-17T03:46:57.369Z,0
2017-03-17T03:47:56.720Z,0
2017-03-17T03:48:56.499Z,0
2017-03-17T03:49:56.822Z,0
2017-03-17T03:50:56.539Z,0
2017-03-17T03:51:57.193Z,0
2017-03-17T03:52:57.165Z,0
2017-03-17T03:53:57.246Z,0
2017-03-17T03:54:57.578Z,0
2017-03-17T03:55:57.300Z,0
2017-03-17T03:56:57.639Z,0
2017-03-17T03:57:57.309Z,0
2017-03-17T03:58:57.400Z,0
2017-03-17T03:59:57.410Z,0
2017-03-17T04:00:57.435Z,0
2017-03-17T04:01:57.463Z,0
2017-03-17T04:02:57.755Z,0
2017-03-17T04:03:57.837Z,0
2017-03-17T04:04:57.862Z,0
2017-03-17T04:05:57.253Z,0
2017-03-17T04:06:57.292Z,0
2017-03-17T04:07:57.328Z,0
2017-03-17T04:08:58.218Z,0
2017-03-17T04:09:57.696Z,0
2017-03-17T04:10:58.039Z,0
2017-03-17T04:11:57.747Z,0
2017-03-17T04:12:58.089Z,0
2017-03-17T04:13:58.357Z,0
2017-03-17T04:14:57.505Z,0
2017-03-17T04:15:57.538Z,0
2017-03-17T04:16:58.203Z,0
2017-03-17T04:17:58.220Z,0
2017-03-17T04:18:58.201Z,0
2017-03-17T04:19:58.291Z,0
2017-03-17T04:20:57.679Z,0
2017-03-17T04:21:57.710Z,0
2017-03-17T04:22:58.048Z,0
2017-03-17T04:23:58.321Z,0
2017-03-17T04:24:57.158Z,0
2017-03-17T04:25:58.123Z,0
2017-03-17T04:26:57.835Z,0
2017-03-17T04:27:58.492Z,0
2017-03-17T04:28:58.465Z,0
2017-03-17T04:29:57.934Z,0
2017-03-17T04:30:58.573Z,0
2017-03-17T04:31:58.595Z,0
2017-03-17T04:32:58.319Z,0
2017-03-17T04:33:58.589Z,0
2017-03-17T04:34:57.757Z,0
2017-03-17T04:35:58.411Z,0
2017-03-17T04:36:58.102Z,0
2017-03-17T04:37:58.766Z,0
2017-03-17T04:38:58.731Z,0
2017-03-17T04:39:58.520Z,0
2017-03-17T04:40:58.205Z,0
2017-03-17T04:41:58.582Z,0
2017-03-17T04:42:58.278Z,0
2017-03-17T04:43:58.869Z,0
2017-03-17T04:44:58.021Z,0
2017-03-17T04:45:58.662Z,0
2017-03-17T04:46:59.002Z,0
2017-03-17T04:47:59.033Z,0
2017-03-17T04:48:58.994Z,0
2017-03-17T04:49:58.785Z,0
2017-03-17T04:50:59.096Z,0
2017-03-17T04:51:58.833Z,0
2017-03-17T04:52:58.866Z,0
2017-03-17T04:53:58.819Z,0
2017-03-17T04:54:58.914Z,0
2017-03-17T04:55:58.651Z,0
2017-03-17T04:56:58.966Z,0
2017-03-17T04:57:59.006Z,0
2017-03-17T04:58:59.275Z,0
2017-03-17T04:59:58.741Z,0
2017-03-17T05:00:59.389Z,0
2017-03-17T05:01:59.409Z,0
2017-03-17T05:02:59.147Z,0
2017-03-17T05:03:59.407Z,0
2017-03-17T05:04:59.180Z,0
2017-03-17T05:05:59.201Z,0
2017-03-17T05:06:59.265Z,0
2017-03-17T05:07:58.951Z,0
2017-03-17T05:08:59.546Z,0
2017-03-17T05:09:59.324Z,0
2017-03-17T05:10:59.345Z,0
2017-03-17T05:11:59.686Z,0
2017-03-17T05:12:59.394Z,0
2017-03-17T05:13:59.676Z,0
2017-03-17T05:14:59.144Z,0
2017-03-17T05:15:58.857Z,0
2017-03-17T05:16:59.513Z,0
2017-03-17T05:17:59.879Z,0
2017-03-17T05:18:59.815Z,0
2017-03-17T05:19:59.605Z,0
2017-03-17T05:20:59.934Z,0
2017-03-17T05:21:59.961Z,0
2017-03-17T05:22:59.686Z,0
2017-03-17T05:23:59.965Z,0
2017-03-17T05:25:00.031Z,0
2017-03-17T05:26:00.064Z,0
2017-03-17T05:26:59.481Z,0
2017-03-17T05:28:00.126Z,0
2017-03-17T05:29:00.409Z,0
2017-03-17T05:29:59.555Z,0
2017-03-17T05:30:59.892Z,0
2017-03-17T05:31:59.596Z,0
2017-03-17T05:32:59.942Z,0
2017-03-17T05:33:59.990Z,0
2017-03-17T05:35:00.015Z,0
2017-03-17T05:36:00.025Z,0
2017-03-17T05:36:59.744Z,0
2017-03-17T05:38:00.425Z,0
2017-03-17T05:39:00.666Z,0
2017-03-17T05:40:00.455Z,0
2017-03-17T05:40:59.847Z,0
2017-03-17T05:42:00.524Z,0
2017-03-17T05:43:00.524Z,0
2017-03-17T05:44:00.558Z,0
2017-03-17T05:45:00.566Z,0
2017-03-17T05:46:00.296Z,0
2017-03-17T05:47:00.002Z,0
2017-03-17T05:48:00.036Z,0
2017-03-17T05:49:00.390Z,0
2017-03-17T05:50:01.023Z,0
2017-03-17T05:51:00.440Z,0
2017-03-17T05:52:00.152Z,0
2017-03-17T05:53:00.185Z,0
2017-03-17T05:54:00.522Z,0
2017-03-17T05:55:00.791Z,0
2017-03-17T05:56:00.258Z,0
2017-03-17T05:57:00.600Z,0
2017-03-17T05:58:00.305Z,0
2017-03-17T05:59:00.356Z,0
2017-03-17T06:00:01.255Z,0
2017-03-17T06:01:00.403Z,0
2017-03-17T06:02:00.110Z,0
2017-03-17T06:03:00.129Z,0
2017-03-17T06:04:01.098Z,0
2017-03-17T06:05:01.450Z,0
2017-03-17T06:06:00.843Z,0
2017-03-17T06:07:00.552Z,0
2017-03-17T06:08:00.271Z,0
2017-03-17T06:09:00.932Z,0
2017-03-17T06:10:01.210Z,0
2017-03-17T06:11:00.975Z,0
2017-03-17T06:12:01.316Z,0
2017-03-17T06:13:00.724Z,0
2017-03-17T06:14:00.753Z,0
2017-03-17T06:15:01.107Z,5
2017-03-17T06:16:01.418Z,5
2017-03-17T06:17:01.455Z,5
2017-03-17T06:18:01.477Z,5
2017-03-17T06:19:01.517Z,5
2017-03-17T06:20:01.797Z,5
2017-03-17T06:21:01.558Z,5
2017-03-17T06:22:01.318Z,5
2017-03-17T06:23:00.996Z,5
2017-03-17T06:24:01.338Z,5
2017-03-17T06:25:01.974Z,5
2017-03-17T06:26:01.073Z,5
2017-03-17T06:27:01.095Z,5
2017-03-17T06:28:01.443Z,5
2017-03-17T06:29:01.152Z,5
2017-03-17T06:30:01.441Z,5
2017-03-17T06:31:00.898Z,5
2017-03-17T06:32:01.235Z,5
2017-03-17T06:33:00.960Z,5
2017-03-17T06:34:00.987Z,5
2017-03-17T06:35:02.257Z,5
2017-03-17T06:36:01.659Z,5
2017-03-17T06:37:01.683Z,5
2017-03-17T06:38:02.025Z,5
2017-03-17T06:39:01.765Z,5
2017-03-17T06:40:02.396Z,5
2017-03-17T06:41:01.802Z,5
2017-03-17T06:42:01.843Z,5
2017-03-17T06:43:02.168Z,5
2017-03-17T06:44:02.213Z,5
2017-03-17T06:45:02.205Z,5
2017-03-17T06:46:01.618Z,5
2017-03-17T06:47:01.339Z,5
2017-03-17T06:48:02.300Z,5
2017-03-17T06:49:02.332Z,5
2017-03-17T06:50:01.670Z,5
2017-03-17T06:51:01.445Z,5
2017-03-17T06:52:01.483Z,5
2017-03-17T06:53:01.819Z,5
2017-03-17T06:54:01.530Z,10
2017-03-17T06:55:02.119Z,10
2017-03-17T06:56:02.218Z,10
2017-03-17T06:57:02.550Z,10
2017-03-17T06:58:02.272Z,10
2017-03-17T06:59:02.299Z,10
2017-03-17T07:00:02.577Z,10
2017-03-17T07:01:02.659Z,10
2017-03-17T07:02:02.683Z,10
2017-03-17T07:03:02.711Z,10
2017-03-17T07:04:02.752Z,10
2017-03-17T07:05:02.713Z,10
2017-03-17T07:06:02.490Z,10
2017-03-17T07:07:02.514Z,10
2017-03-17T07:08:02.538Z,10
2017-03-17T07:09:02.889Z,10
2017-03-17T07:10:02.878Z,10
2017-03-17T07:11:02.934Z,10
2017-03-17T07:12:02.339Z,10
2017-03-17T07:13:02.363Z,10
2017-03-17T07:14:02.392Z,15
2017-03-17T07:15:02.991Z,15
2017-03-17T07:16:02.454Z,20
2017-03-17T07:17:02.166Z,30
2017-03-17T07:18:03.131Z,40
2017-03-17T07:19:03.156Z,45
2017-03-17T07:20:03.495Z,50
2017-03-17T07:21:02.907Z,50
2017-03-17T07:22:03.239Z,55
2017-03-17T07:23:03.278Z,60
2017-03-17T07:24:03.016Z,65
2017-03-17T07:25:03.263Z,70
2017-03-17T07:26:02.750Z,75
2017-03-17T07:27:02.442Z,75
2017-03-17T07:28:03.422Z,75
2017-03-17T07:29:02.492Z,75
2017-03-17T07:30:03.408Z,75
2017-03-17T07:31:03.509Z,75
2017-03-17T07:32:03.202Z,75
2017-03-17T07:33:02.923Z,75
2017-03-17T07:34:03.271Z,75
2017-03-17T07:35:03.610Z,70
2017-03-17T07:36:03.002Z,65
2017-03-17T07:37:03.350Z,60
2017-03-17T07:38:03.398Z,55
2017-03-17T07:39:03.407Z,60
2017-03-17T07:40:03.691Z,50
2017-03-17T07:41:03.777Z,25
2017-03-17T07:42:03.494Z,50
2017-03-17T07:43:03.519Z,55
2017-03-17T07:44:03.867Z,50
2017-03-17T07:45:03.588Z,50
2017-03-17T07:46:03.594Z,50
2017-03-17T07:47:02.700Z,45
2017-03-17T07:48:03.670Z,45
2017-03-17T07:49:03.387Z,40
2017-03-17T07:50:03.735Z,40
2017-03-17T07:51:03.740Z,40
2017-03-17T07:52:03.776Z,35
2017-03-17T07:53:03.823Z,35
2017-03-17T07:54:03.847Z,35
2017-03-17T07:55:03.566Z,35
2017-03-17T07:56:03.856Z,35
2017-03-17T07:57:03.292Z,35
2017-03-17T07:58:03.950Z,35
2017-03-17T07:59:03.991Z,35
2017-03-17T08:00:03.399Z,35
2017-03-17T08:01:03.709Z,35
2017-03-17T08:02:04.080Z,35
2017-03-17T08:03:04.411Z,30
2017-03-17T08:04:04.119Z,30
2017-03-17T08:05:03.843Z,30
2017-03-17T08:06:04.438Z,30
2017-03-17T08:07:04.525Z,30
2017-03-17T08:08:04.249Z,30
2017-03-17T08:09:04.274Z,30
2017-03-17T08:10:04.299Z,30
2017-03-17T08:11:04.611Z,30
2017-03-17T08:12:04.028Z,30
2017-03-17T08:13:04.065Z,30
2017-03-17T08:14:04.411Z,30
2017-03-17T08:15:04.127Z,30
2017-03-17T08:16:03.827Z,25
2017-03-17T08:17:04.497Z,30
2017-03-17T08:18:04.845Z,30
2017-03-17T08:19:04.559Z,25
2017-03-17T08:20:04.900Z,30
2017-03-17T08:21:04.608Z,30
2017-03-17T08:22:04.956Z,30
2017-03-17T08:23:04.669Z,30
2017-03-17T08:24:05.028Z,30
2017-03-17T08:25:04.731Z,30
2017-03-17T08:26:04.693Z,30
2017-03-17T08:27:04.792Z,30
2017-03-17T08:28:04.498Z,25
2017-03-17T08:29:04.523Z,30
2017-03-17T08:30:04.866Z,30
2017-03-17T08:31:05.147Z,30
2017-03-17T08:32:04.924Z,30
2017-03-17T08:33:04.965Z,30
2017-03-17T08:34:04.353Z,30
2017-03-17T08:35:05.015Z,30
2017-03-17T08:36:05.604Z,30
2017-03-17T08:37:05.052Z,30
2017-03-17T08:38:04.786Z,30
2017-03-17T08:39:04.498Z,30
2017-03-17T08:40:05.463Z,30
2017-03-17T08:41:05.424Z,30
2017-03-17T08:42:04.900Z,30
2017-03-17T08:43:05.543Z,35
2017-03-17T08:44:04.959Z,35
2017-03-17T08:45:05.597Z,30
2017-03-17T08:46:05.882Z,30
2017-03-17T08:47:05.663Z,40
2017-03-17T08:48:05.369Z,45
2017-03-17T08:49:05.714Z,45
2017-03-17T08:50:05.430Z,45
2017-03-17T08:51:05.399Z,50
2017-03-17T08:52:05.800Z,40
2017-03-17T08:53:05.864Z,40
2017-03-17T08:54:05.546Z,45
2017-03-17T08:55:05.254Z,50
2017-03-17T08:56:05.847Z,60
2017-03-17T08:57:05.632Z,60
2017-03-17T08:58:05.678Z,55
2017-03-17T08:59:05.996Z,55
2017-03-17T09:00:05.710Z,55
2017-03-17T09:01:05.991Z,55
2017-03-17T09:02:05.448Z,55
2017-03-17T09:03:06.108Z,55
2017-03-17T09:04:05.816Z,60
2017-03-17T09:05:05.233Z,60
2017-03-17T09:06:05.521Z,60
2017-03-17T09:07:06.224Z,60
2017-03-17T09:08:05.941Z,55
2017-03-17T09:09:05.654Z,55
2017-03-17T09:10:06.000Z,50
2017-03-17T09:11:06.586Z,50
2017-03-17T09:12:06.055Z,45
2017-03-17T09:13:05.451Z,45
2017-03-17T09:14:06.109Z,45
2017-03-17T09:15:06.138Z,45
2017-03-17T09:16:05.801Z,45
2017-03-17T09:17:06.196Z,40
2017-03-17T09:18:06.219Z,40
2017-03-17T09:19:05.938Z,30
2017-03-17T09:20:05.350Z,35
2017-03-17T09:21:06.250Z,40
2017-03-17T09:22:06.023Z,40
2017-03-17T09:23:06.679Z,40
2017-03-17T09:24:06.073Z,40
2017-03-17T09:25:05.805Z,35
2017-03-17T09:26:06.076Z,40
2017-03-17T09:27:05.854Z,40
2017-03-17T09:28:06.523Z,45
2017-03-17T09:29:06.536Z,45
2017-03-17T09:30:06.261Z,45
2017-03-17T09:31:06.541Z,40
2017-03-17T09:32:05.699Z,45
2017-03-17T09:33:06.647Z,45
2017-03-17T09:34:06.997Z,50
2017-03-17T09:35:06.700Z,45
2017-03-17T09:36:06.673Z,45
2017-03-17T09:37:06.459Z,55
2017-03-17T09:38:07.113Z,50
2017-03-17T09:39:07.138Z,55
2017-03-17T09:40:06.544Z,45
2017-03-17T09:41:06.293Z,45
2017-03-17T09:42:06.857Z,40
2017-03-17T09:43:06.672Z,45
2017-03-17T09:44:06.332Z,50
2017-03-17T09:45:07.005Z,55
2017-03-17T09:46:07.353Z,45
2017-03-17T09:47:06.986Z,40
2017-03-17T09:48:06.446Z,35
2017-03-17T09:49:06.796Z,40
2017-03-17T09:50:06.516Z,45
2017-03-17T09:51:06.854Z,50
2017-03-17T09:52:07.130Z,40
2017-03-17T09:53:07.223Z,30
2017-03-17T09:54:07.247Z,25
2017-03-17T09:55:07.272Z,30
2017-03-17T09:56:07.305Z,40
2017-03-17T09:57:07.266Z,30
2017-03-17T09:58:07.042Z,40
2017-03-17T09:59:07.077Z,45
2017-03-17T10:00:06.792Z,40
2017-03-17T10:01:07.134Z,50
2017-03-17T10:02:07.106Z,45
2017-03-17T10:03:07.502Z,40
2017-03-17T10:04:06.903Z,35
2017-03-17T10:05:07.252Z,35
2017-03-17T10:06:06.965Z,35
2017-03-17T10:07:07.582Z,50
2017-03-17T10:08:07.646Z,35
2017-03-17T10:09:07.059Z,30
2017-03-17T10:10:07.396Z,35
2017-03-17T10:11:07.741Z,40
2017-03-17T10:12:08.332Z,40
2017-03-17T10:13:08.102Z,40
2017-03-17T10:14:08.142Z,40
2017-03-17T10:15:08.168Z,40
2017-03-17T10:16:08.185Z,40
2017-03-17T10:17:08.170Z,45
2017-03-17T10:18:07.619Z,40
2017-03-17T10:19:07.343Z,30
2017-03-17T10:20:08.000Z,35
2017-03-17T10:21:07.732Z,35
2017-03-17T10:22:07.985Z,25
2017-03-17T10:23:08.082Z,35
2017-03-17T10:24:07.487Z,25
2017-03-17T10:25:08.132Z,20
2017-03-17T10:26:07.847Z,15
2017-03-17T10:27:08.133Z,20
2017-03-17T10:28:07.310Z,15
2017-03-17T10:29:08.246Z,15
2017-03-17T10:30:07.967Z,15
2017-03-17T10:31:08.299Z,15
2017-03-17T10:32:08.594Z,15
2017-03-17T10:33:08.354Z,15
2017-03-17T10:34:08.391Z,25
2017-03-17T10:35:07.783Z,20
2017-03-17T10:36:07.818Z,20
2017-03-17T10:37:08.100Z,20
2017-03-17T10:38:08.493Z,20
2017-03-17T10:39:08.555Z,20
2017-03-17T10:40:08.247Z,25
2017-03-17T10:41:07.963Z,20
2017-03-17T10:42:07.961Z,20
2017-03-17T10:43:08.017Z,20
2017-03-17T10:44:08.366Z,15
2017-03-17T10:45:08.079Z,15
2017-03-17T10:46:08.728Z,20
2017-03-17T10:47:08.700Z,15
2017-03-17T10:48:09.098Z,15
2017-03-17T10:49:08.839Z,20
2017-03-17T10:50:09.157Z,20
2017-03-17T10:51:09.180Z,15
2017-03-17T10:52:09.462Z,20
2017-03-17T10:53:09.241Z,20
2017-03-17T10:54:09.265Z,25
2017-03-17T10:55:08.675Z,25
2017-03-17T10:56:08.407Z,30
2017-03-17T10:57:08.664Z,30
2017-03-17T10:58:08.137Z,35
2017-03-17T10:59:09.102Z,30
2017-03-17T11:00:08.811Z,30
2017-03-17T11:01:09.151Z,35
2017-03-17T11:02:09.116Z,35
2017-03-17T11:03:08.925Z,40
2017-03-17T11:04:08.925Z,45
2017-03-17T11:05:08.646Z,35
2017-03-17T11:06:09.607Z,35
2017-03-17T11:07:09.596Z,40
2017-03-17T11:08:09.665Z,40
2017-03-17T11:09:09.706Z,50
2017-03-17T11:10:09.091Z,40
2017-03-17T11:11:09.738Z,30
2017-03-17T11:12:09.421Z,30
2017-03-17T11:13:09.188Z,30
2017-03-17T11:14:09.530Z,25
2017-03-17T11:15:08.946Z,20
2017-03-17T11:16:09.264Z,20
2017-03-17T11:17:09.231Z,20
2017-03-17T11:18:09.013Z,20
2017-03-17T11:19:08.730Z,20
2017-03-17T11:20:09.681Z,20
2017-03-17T11:21:09.407Z,15
2017-03-17T11:22:09.359Z,15
2017-03-17T11:23:09.773Z,15
2017-03-17T11:24:10.112Z,15
2017-03-17T11:25:09.518Z,15
2017-03-17T11:26:10.175Z,15
2017-03-17T11:27:10.135Z,15
2017-03-17T11:28:09.916Z,20
2017-03-17T11:29:09.941Z,20
2017-03-17T11:30:10.282Z,20
2017-03-17T11:31:10.002Z,20
2017-03-17T11:32:09.659Z,25
2017-03-17T11:33:10.043Z,25
2017-03-17T11:34:09.768Z,25
2017-03-17T11:35:09.794Z,25
2017-03-17T11:36:10.142Z,30
2017-03-17T11:37:10.731Z,30
2017-03-17T11:38:10.190Z,35
2017-03-17T11:39:09.609Z,25
2017-03-17T11:40:10.257Z,25
2017-03-17T11:41:09.974Z,25
2017-03-17T11:42:09.948Z,40
2017-03-17T11:43:10.028Z,35
2017-03-17T11:44:10.381Z,45
2017-03-17T11:45:10.714Z,30
2017-03-17T11:46:10.425Z,45
2017-03-17T11:47:10.395Z,40
2017-03-17T11:48:10.797Z,40
2017-03-17T11:49:10.199Z,45
2017-03-17T11:50:10.849Z,45
2017-03-17T11:51:09.941Z,60
2017-03-17T11:52:10.534Z,60
2017-03-17T11:53:10.319Z,50
2017-03-17T11:54:10.341Z,45
2017-03-17T11:55:10.052Z,40
2017-03-17T11:56:10.713Z,40
2017-03-17T11:57:10.364Z,40
2017-03-17T11:58:10.483Z,35
2017-03-17T11:59:11.150Z,40
2017-03-17T12:00:10.813Z,20
2017-03-17T12:01:10.541Z,25
2017-03-17T12:02:10.814Z,30
2017-03-17T12:03:11.213Z,25
2017-03-17T12:04:10.935Z,25
2017-03-17T12:05:10.657Z,20
2017-03-17T12:06:11.309Z,20
2017-03-17T12:07:11.270Z,20
2017-03-17T12:08:10.746Z,30
2017-03-17T12:09:11.080Z,35
2017-03-17T12:10:11.113Z,35
2017-03-17T12:11:10.505Z,45
2017-03-17T12:12:11.417Z,30
2017-03-17T12:13:10.563Z,35
2017-03-17T12:14:10.904Z,55
2017-03-17T12:15:10.960Z,60
2017-03-17T12:16:10.961Z,70
2017-03-17T12:17:11.242Z,70
2017-03-17T12:18:11.645Z,40
2017-03-17T12:19:11.676Z,35
2017-03-17T12:20:11.076Z,20
2017-03-17T12:21:11.425Z,25
2017-03-17T12:22:11.377Z,20
2017-03-17T12:23:11.154Z,15
2017-03-17T12:24:11.495Z,15
2017-03-17T12:25:10.912Z,15
2017-03-17T12:26:11.872Z,20
2017-03-17T12:27:11.836Z,15
2017-03-17T12:28:11.618Z,15
2017-03-17T12:29:11.014Z,10
2017-03-17T12:30:11.983Z,10
2017-03-17T12:31:11.081Z,10
2017-03-17T12:32:11.977Z,15
2017-03-17T12:33:11.766Z,30
2017-03-17T12:34:11.484Z,30
2017-03-17T12:35:11.501Z,45
2017-03-17T12:36:11.848Z,35
2017-03-17T12:37:12.116Z,25
2017-03-17T12:38:11.907Z,30
2017-03-17T12:39:12.241Z,40
2017-03-17T12:40:12.266Z,50
2017-03-17T12:41:11.704Z,55
2017-03-17T12:42:12.572Z,70
2017-03-17T12:43:11.734Z,65
2017-03-17T12:44:11.754Z,60
2017-03-17T12:45:12.415Z,60
2017-03-17T12:46:11.818Z,80
2017-03-17T12:47:12.409Z,70
2017-03-17T12:48:11.873Z,60
2017-03-17T12:49:11.594Z,60
2017-03-17T12:50:12.551Z,90
2017-03-17T12:51:12.584Z,85
2017-03-17T12:52:12.540Z,90
2017-03-17T12:53:12.638Z,100
2017-03-17T12:54:12.349Z,105
2017-03-17T12:55:12.378Z,95
2017-03-17T12:56:12.714Z,70
2017-03-17T12:57:13.045Z,80
2017-03-17T12:58:12.793Z,75
2017-03-17T12:59:12.502Z,90
2017-03-17T13:00:12.530Z,85
2017-03-17T13:01:12.857Z,80
2017-03-17T13:02:12.835Z,75
2017-03-17T13:03:12.304Z,80
2017-03-17T13:04:12.650Z,80
2017-03-17T13:05:12.047Z,70
2017-03-17T13:06:12.700Z,55
2017-03-17T13:07:12.973Z,55
2017-03-17T13:08:12.457Z,50
2017-03-17T13:09:13.102Z,95
2017-03-17T13:10:12.186Z,100
2017-03-17T13:11:12.831Z,80
2017-03-17T13:12:13.124Z,55
2017-03-17T13:13:13.221Z,90
2017-03-17T13:14:13.239Z,95
2017-03-17T13:15:13.274Z,95
2017-03-17T13:16:12.986Z,100
2017-03-17T13:17:13.583Z,110
2017-03-17T13:18:13.041Z,65
2017-03-17T13:19:13.077Z,80
2017-03-17T13:20:12.794Z,80
2017-03-17T13:21:13.143Z,95
2017-03-17T13:22:13.415Z,105
2017-03-17T13:23:12.884Z,100
2017-03-17T13:24:12.598Z,95
2017-03-17T13:25:13.254Z,65
2017-03-17T13:26:13.595Z,60
2017-03-17T13:27:13.879Z,50
2017-03-17T13:28:13.661Z,55
2017-03-17T13:29:13.089Z,60
2017-03-17T13:30:13.717Z,50
2017-03-17T13:31:13.430Z,75
2017-03-17T13:32:13.085Z,60
2017-03-17T13:33:13.808Z,60
2017-03-17T13:34:13.829Z,70
2017-03-17T13:35:13.553Z,85
2017-03-17T13:36:13.266Z,75
2017-03-17T13:37:13.546Z,95
2017-03-17T13:38:13.640Z,85
2017-03-17T13:39:13.685Z,55
2017-03-17T13:40:13.698Z,55
2017-03-17T13:41:13.418Z,55
2017-03-17T13:42:14.014Z,50
2017-03-17T13:43:13.784Z,65
2017-03-17T13:44:13.820Z,50
2017-03-17T13:45:14.157Z,50
2017-03-17T13:46:14.182Z,50
2017-03-17T13:47:14.467Z,60
2017-03-17T13:48:14.256Z,65
2017-03-17T13:49:14.317Z,60
2017-03-17T13:50:13.989Z,55
2017-03-17T13:51:14.013Z,50
2017-03-17T13:52:13.985Z,55
2017-03-17T13:53:13.803Z,50
2017-03-17T13:54:14.109Z,55
2017-03-17T13:55:14.450Z,75
2017-03-17T13:56:14.178Z,85
2017-03-17T13:57:14.137Z,75
2017-03-17T13:58:14.548Z,75
2017-03-17T13:59:13.978Z,75
2017-03-17T14:00:14.289Z,75
2017-03-17T14:01:13.690Z,75
2017-03-17T14:02:14.921Z,80
2017-03-17T14:03:14.093Z,85
2017-03-17T14:04:14.724Z,80
2017-03-17T14:05:14.748Z,80
2017-03-17T14:06:14.148Z,65
2017-03-17T14:07:15.054Z,60
2017-03-17T14:08:14.531Z,65
2017-03-17T14:09:14.549Z,35
2017-03-17T14:10:14.593Z,35
2017-03-17T14:11:14.297Z,35
2017-03-17T14:12:15.198Z,40
2017-03-17T14:13:14.360Z,30
2017-03-17T14:14:14.396Z,30
2017-03-17T14:15:14.419Z,30
2017-03-17T14:16:14.449Z,35
2017-03-17T14:17:15.354Z,30
2017-03-17T14:18:14.499Z,25
2017-03-17T14:19:15.164Z,20
2017-03-17T14:20:14.880Z,15
2017-03-17T14:21:15.213Z,15
2017-03-17T14:22:15.190Z,15
2017-03-17T14:23:15.277Z,15
2017-03-17T14:24:14.994Z,15
2017-03-17T14:25:15.349Z,15
2017-03-17T14:26:15.365Z,10
2017-03-17T14:27:15.645Z,10
2017-03-17T14:28:15.115Z,10
2017-03-17T14:29:15.143Z,15
2017-03-17T14:30:14.868Z,10
2017-03-17T14:31:14.889Z,10